sensor_id;sensor_type;location;lat;lon;timestamp;temperature;humidity
12015;DHT22;6066;48.138;16.402;2022-09-09T00:00:11;15.60;99.90
12015;DHT22;6066;48.138;16.402;2022-09-09T00:02:40;15.70;99.90
12015;DHT22;6066;48.138;16.402;2022-09-09T00:05:12;15.70;99.90
12015;DHT22;6066;48.138;16.402;2022-09-09T00:07:41;15.80;99.90
12015;DHT22;6066;48.138;16.402;2022-09-09T00:10:13;15.80;99.90
12015;DHT22;6066;48.138;16.402;2022-09-09T00:12:42;15.80;99.90
12015;DHT22;6066;48.138;16.402;2022-09-09T00:15:11;15.80;99.90
12015;DHT22;6066;48.138;16.402;2022-09-09T00:17:41;15.80;99.90
12015;DHT22;6066;48.138;16.402;2022-09-09T00:20:11;15.90;99.90
12015;DHT22;6066;48.138;16.402;2022-09-09T00:22:38;15.90;99.90
12015;DHT22;6066;48.138;16.402;2022-09-09T00:25:08;15.90;99.90
12015;DHT22;6066;48.138;16.402;2022-09-09T00:27:37;15.90;99.90
12015;DHT22;6066;48.138;16.402;2022-09-09T00:30:12;16.00;99.90
12015;DHT22;6066;48.138;16.402;2022-09-09T00:32:41;16.00;99.90
12015;DHT22;6066;48.138;16.402;2022-09-09T00:35:12;15.90;99.90
12015;DHT22;6066;48.138;16.402;2022-09-09T00:37:41;15.90;99.90
12015;DHT22;6066;48.138;16.402;2022-09-09T00:40:13;15.90;99.90
12015;DHT22;6066;48.138;16.402;2022-09-09T00:42:43;15.80;99.90
12015;DHT22;6066;48.138;16.402;2022-09-09T00:45:16;15.80;99.90
12015;DHT22;6066;48.138;16.402;2022-09-09T00:47:46;15.80;99.90
12015;DHT22;6066;48.138;16.402;2022-09-09T00:50:17;15.80;99.90
12015;DHT22;6066;48.138;16.402;2022-09-09T00:52:51;15.80;99.90
12015;DHT22;6066;48.138;16.402;2022-09-09T00:55:25;15.70;99.90
12015;DHT22;6066;48.138;16.402;2022-09-09T00:57:54;15.70;99.90
12015;DHT22;6066;48.138;16.402;2022-09-09T01:00:22;15.80;99.90
12015;DHT22;6066;48.138;16.402;2022-09-09T01:02:56;15.80;99.90
12015;DHT22;6066;48.138;16.402;2022-09-09T01:05:30;15.80;99.90
12015;DHT22;6066;48.138;16.402;2022-09-09T01:08:00;15.80;99.90
12015;DHT22;6066;48.138;16.402;2022-09-09T01:10:30;15.80;99.90
12015;DHT22;6066;48.138;16.402;2022-09-09T01:13:00;15.80;99.90
12015;DHT22;6066;48.138;16.402;2022-09-09T01:15:29;15.80;99.90
12015;DHT22;6066;48.138;16.402;2022-09-09T01:18:02;15.80;99.90
12015;DHT22;6066;48.138;16.402;2022-09-09T01:20:36;15.80;99.90
12015;DHT22;6066;48.138;16.402;2022-09-09T01:23:12;15.70;99.90
12015;DHT22;6066;48.138;16.402;2022-09-09T01:26:04;15.70;99.90
12015;DHT22;6066;48.138;16.402;2022-09-09T01:28:35;15.70;99.90
12015;DHT22;6066;48.138;16.402;2022-09-09T01:31:02;15.60;99.90
12015;DHT22;6066;48.138;16.402;2022-09-09T01:33:29;15.60;99.90
12015;DHT22;6066;48.138;16.402;2022-09-09T01:35:57;15.50;99.90
12015;DHT22;6066;48.138;16.402;2022-09-09T01:38:26;15.40;99.90
12015;DHT22;6066;48.138;16.402;2022-09-09T01:40:55;15.40;99.90
12015;DHT22;6066;48.138;16.402;2022-09-09T01:43:24;15.30;99.90
12015;DHT22;6066;48.138;16.402;2022-09-09T01:45:52;15.20;99.90
12015;DHT22;6066;48.138;16.402;2022-09-09T01:48:20;15.20;99.90
12015;DHT22;6066;48.138;16.402;2022-09-09T01:50:47;15.10;99.90
12015;DHT22;6066;48.138;16.402;2022-09-09T01:53:14;15.00;99.90
12015;DHT22;6066;48.138;16.402;2022-09-09T01:55:44;14.90;99.90
12015;DHT22;6066;48.138;16.402;2022-09-09T01:58:19;14.90;99.90
12015;DHT22;6066;48.138;16.402;2022-09-09T02:00:49;14.80;99.90
12015;DHT22;6066;48.138;16.402;2022-09-09T02:03:19;14.70;99.90
12015;DHT22;6066;48.138;16.402;2022-09-09T02:05:49;14.70;99.90
12015;DHT22;6066;48.138;16.402;2022-09-09T02:08:20;14.60;99.90
12015;DHT22;6066;48.138;16.402;2022-09-09T02:10:50;14.50;99.90
12015;DHT22;6066;48.138;16.402;2022-09-09T02:13:21;14.40;99.90
12015;DHT22;6066;48.138;16.402;2022-09-09T02:15:50;14.40;99.90
12015;DHT22;6066;48.138;16.402;2022-09-09T02:18:20;14.40;99.90
12015;DHT22;6066;48.138;16.402;2022-09-09T02:20:48;14.30;99.90
12015;DHT22;6066;48.138;16.402;2022-09-09T02:23:16;14.30;99.90
12015;DHT22;6066;48.138;16.402;2022-09-09T02:25:43;14.20;99.90
12015;DHT22;6066;48.138;16.402;2022-09-09T02:28:11;14.20;99.90
12015;DHT22;6066;48.138;16.402;2022-09-09T02:30:41;14.10;99.90
12015;DHT22;6066;48.138;16.402;2022-09-09T02:33:09;14.10;99.90
12015;DHT22;6066;48.138;16.402;2022-09-09T02:35:37;14.00;99.90
12015;DHT22;6066;48.138;16.402;2022-09-09T02:38:06;14.00;99.90
12015;DHT22;6066;48.138;16.402;2022-09-09T02:40:33;14.00;99.90
12015;DHT22;6066;48.138;16.402;2022-09-09T02:43:00;13.90;99.90
12015;DHT22;6066;48.138;16.402;2022-09-09T02:45:30;13.90;99.90
12015;DHT22;6066;48.138;16.402;2022-09-09T02:48:03;13.90;99.90
12015;DHT22;6066;48.138;16.402;2022-09-09T02:50:34;13.90;99.90
12015;DHT22;6066;48.138;16.402;2022-09-09T02:53:04;13.90;99.90
12015;DHT22;6066;48.138;16.402;2022-09-09T02:55:37;13.90;99.90
12015;DHT22;6066;48.138;16.402;2022-09-09T02:58:04;13.80;99.90
12015;DHT22;6066;48.138;16.402;2022-09-09T03:00:32;13.80;99.90
12015;DHT22;6066;48.138;16.402;2022-09-09T03:03:02;13.80;99.90
12015;DHT22;6066;48.138;16.402;2022-09-09T03:05:29;13.80;99.90
12015;DHT22;6066;48.138;16.402;2022-09-09T03:07:56;13.80;99.90
12015;DHT22;6066;48.138;16.402;2022-09-09T03:10:22;13.80;99.90
12015;DHT22;6066;48.138;16.402;2022-09-09T03:12:49;13.80;99.90
12015;DHT22;6066;48.138;16.402;2022-09-09T03:15:16;13.80;99.90
12015;DHT22;6066;48.138;16.402;2022-09-09T03:17:42;13.80;99.90
12015;DHT22;6066;48.138;16.402;2022-09-09T03:20:10;13.80;99.90
12015;DHT22;6066;48.138;16.402;2022-09-09T03:22:37;13.80;99.90
12015;DHT22;6066;48.138;16.402;2022-09-09T03:25:04;13.80;99.90
12015;DHT22;6066;48.138;16.402;2022-09-09T03:27:32;13.80;99.90
12015;DHT22;6066;48.138;16.402;2022-09-09T03:29:58;13.80;99.90
12015;DHT22;6066;48.138;16.402;2022-09-09T03:32:27;13.80;99.90
12015;DHT22;6066;48.138;16.402;2022-09-09T03:34:54;13.80;99.90
12015;DHT22;6066;48.138;16.402;2022-09-09T03:37:22;13.80;99.90
12015;DHT22;6066;48.138;16.402;2022-09-09T03:39:49;13.70;99.90
12015;DHT22;6066;48.138;16.402;2022-09-09T03:42:15;13.70;99.90
12015;DHT22;6066;48.138;16.402;2022-09-09T03:44:44;13.70;99.90
12015;DHT22;6066;48.138;16.402;2022-09-09T03:47:12;13.70;99.90
12015;DHT22;6066;48.138;16.402;2022-09-09T03:49:39;13.70;99.90
12015;DHT22;6066;48.138;16.402;2022-09-09T03:52:06;13.70;99.90
12015;DHT22;6066;48.138;16.402;2022-09-09T03:54:34;13.70;99.90
12015;DHT22;6066;48.138;16.402;2022-09-09T03:57:01;13.70;99.90
12015;DHT22;6066;48.138;16.402;2022-09-09T03:59:27;13.70;99.90
12015;DHT22;6066;48.138;16.402;2022-09-09T04:01:54;13.70;99.90
12015;DHT22;6066;48.138;16.402;2022-09-09T04:04:22;13.70;99.90
12015;DHT22;6066;48.138;16.402;2022-09-09T04:06:49;13.70;99.90
12015;DHT22;6066;48.138;16.402;2022-09-09T04:09:16;13.60;99.90
12015;DHT22;6066;48.138;16.402;2022-09-09T04:11:44;13.60;99.90
12015;DHT22;6066;48.138;16.402;2022-09-09T04:14:11;13.60;99.90
12015;DHT22;6066;48.138;16.402;2022-09-09T04:16:38;13.60;99.90
12015;DHT22;6066;48.138;16.402;2022-09-09T04:19:08;13.50;99.90
12015;DHT22;6066;48.138;16.402;2022-09-09T04:21:36;13.50;99.90
12015;DHT22;6066;48.138;16.402;2022-09-09T04:24:02;13.40;99.90
12015;DHT22;6066;48.138;16.402;2022-09-09T04:26:29;13.40;99.90
12015;DHT22;6066;48.138;16.402;2022-09-09T04:28:57;13.40;99.90
12015;DHT22;6066;48.138;16.402;2022-09-09T04:31:24;13.40;99.90
12015;DHT22;6066;48.138;16.402;2022-09-09T04:33:51;13.40;99.90
12015;DHT22;6066;48.138;16.402;2022-09-09T04:36:18;13.30;99.90
12015;DHT22;6066;48.138;16.402;2022-09-09T04:38:45;13.30;99.90
12015;DHT22;6066;48.138;16.402;2022-09-09T04:41:12;13.30;99.90
12015;DHT22;6066;48.138;16.402;2022-09-09T04:43:39;13.30;99.90
12015;DHT22;6066;48.138;16.402;2022-09-09T04:46:07;13.30;99.90
12015;DHT22;6066;48.138;16.402;2022-09-09T04:48:33;13.20;99.90
12015;DHT22;6066;48.138;16.402;2022-09-09T04:51:00;13.20;99.90
12015;DHT22;6066;48.138;16.402;2022-09-09T04:53:28;13.20;99.90
12015;DHT22;6066;48.138;16.402;2022-09-09T04:56:00;13.20;99.90
12015;DHT22;6066;48.138;16.402;2022-09-09T04:58:27;13.30;99.90
12015;DHT22;6066;48.138;16.402;2022-09-09T05:00:54;13.30;99.90
12015;DHT22;6066;48.138;16.402;2022-09-09T05:03:22;13.30;99.90
12015;DHT22;6066;48.138;16.402;2022-09-09T05:05:49;13.30;99.90
12015;DHT22;6066;48.138;16.402;2022-09-09T05:08:15;13.30;99.90
12015;DHT22;6066;48.138;16.402;2022-09-09T05:10:43;13.30;99.90
12015;DHT22;6066;48.138;16.402;2022-09-09T05:13:11;13.40;99.90
12015;DHT22;6066;48.138;16.402;2022-09-09T05:15:37;13.40;99.90
12015;DHT22;6066;48.138;16.402;2022-09-09T05:18:04;13.40;99.90
12015;DHT22;6066;48.138;16.402;2022-09-09T05:20:32;13.50;99.90
12015;DHT22;6066;48.138;16.402;2022-09-09T05:22:59;13.50;99.90
12015;DHT22;6066;48.138;16.402;2022-09-09T05:25:25;13.50;99.90
12015;DHT22;6066;48.138;16.402;2022-09-09T05:27:52;13.60;99.90
12015;DHT22;6066;48.138;16.402;2022-09-09T05:30:20;13.60;99.90
12015;DHT22;6066;48.138;16.402;2022-09-09T05:32:47;13.70;99.90
12015;DHT22;6066;48.138;16.402;2022-09-09T05:35:14;13.70;99.90
12015;DHT22;6066;48.138;16.402;2022-09-09T05:37:42;13.80;99.90
12015;DHT22;6066;48.138;16.402;2022-09-09T05:40:09;14.00;99.90
12015;DHT22;6066;48.138;16.402;2022-09-09T05:42:36;14.10;99.90
12015;DHT22;6066;48.138;16.402;2022-09-09T05:45:04;14.20;99.90
12015;DHT22;6066;48.138;16.402;2022-09-09T05:47:32;14.30;99.90
12015;DHT22;6066;48.138;16.402;2022-09-09T05:49:59;14.40;99.90
12015;DHT22;6066;48.138;16.402;2022-09-09T05:52:26;14.50;99.90
12015;DHT22;6066;48.138;16.402;2022-09-09T05:54:54;14.60;99.90
12015;DHT22;6066;48.138;16.402;2022-09-09T05:57:22;14.70;99.90
12015;DHT22;6066;48.138;16.402;2022-09-09T05:59:49;14.70;99.90
12015;DHT22;6066;48.138;16.402;2022-09-09T06:02:16;14.80;99.90
12015;DHT22;6066;48.138;16.402;2022-09-09T06:04:42;15.00;99.90
12015;DHT22;6066;48.138;16.402;2022-09-09T06:07:09;15.10;99.90
12015;DHT22;6066;48.138;16.402;2022-09-09T06:09:36;15.20;99.90
12015;DHT22;6066;48.138;16.402;2022-09-09T06:12:04;15.20;99.90
12015;DHT22;6066;48.138;16.402;2022-09-09T06:14:31;15.20;99.90
12015;DHT22;6066;48.138;16.402;2022-09-09T06:16:57;15.30;99.90
12015;DHT22;6066;48.138;16.402;2022-09-09T06:19:24;15.30;99.90
12015;DHT22;6066;48.138;16.402;2022-09-09T06:21:52;15.40;99.90
12015;DHT22;6066;48.138;16.402;2022-09-09T06:24:18;15.40;99.90
12015;DHT22;6066;48.138;16.402;2022-09-09T06:26:45;15.40;99.90
12015;DHT22;6066;48.138;16.402;2022-09-09T06:29:13;15.50;99.90
12015;DHT22;6066;48.138;16.402;2022-09-09T06:31:40;15.50;99.90
12015;DHT22;6066;48.138;16.402;2022-09-09T06:34:07;15.60;99.90
12015;DHT22;6066;48.138;16.402;2022-09-09T06:36:34;15.70;99.90
12015;DHT22;6066;48.138;16.402;2022-09-09T06:39:02;15.80;99.90
12015;DHT22;6066;48.138;16.402;2022-09-09T06:41:29;16.00;99.90
12015;DHT22;6066;48.138;16.402;2022-09-09T06:43:56;16.20;99.90
12015;DHT22;6066;48.138;16.402;2022-09-09T06:46:25;16.40;99.90
12015;DHT22;6066;48.138;16.402;2022-09-09T06:48:53;16.50;99.90
12015;DHT22;6066;48.138;16.402;2022-09-09T06:51:22;16.70;99.90
12015;DHT22;6066;48.138;16.402;2022-09-09T06:53:50;16.90;99.90
12015;DHT22;6066;48.138;16.402;2022-09-09T06:56:18;17.10;99.90
12015;DHT22;6066;48.138;16.402;2022-09-09T06:58:46;17.10;99.90
12015;DHT22;6066;48.138;16.402;2022-09-09T07:01:14;17.20;99.90
12015;DHT22;6066;48.138;16.402;2022-09-09T07:03:44;17.30;99.90
12015;DHT22;6066;48.138;16.402;2022-09-09T07:06:12;17.50;99.90
12015;DHT22;6066;48.138;16.402;2022-09-09T07:08:40;17.60;99.90
12015;DHT22;6066;48.138;16.402;2022-09-09T07:11:07;17.80;99.90
12015;DHT22;6066;48.138;16.402;2022-09-09T07:13:34;17.90;99.90
12015;DHT22;6066;48.138;16.402;2022-09-09T07:16:03;18.10;99.90
12015;DHT22;6066;48.138;16.402;2022-09-09T07:18:30;18.20;99.90
12015;DHT22;6066;48.138;16.402;2022-09-09T07:20:58;18.30;99.90
12015;DHT22;6066;48.138;16.402;2022-09-09T07:23:24;18.50;99.90
12015;DHT22;6066;48.138;16.402;2022-09-09T07:25:51;18.50;99.90
12015;DHT22;6066;48.138;16.402;2022-09-09T07:28:18;18.50;99.90
12015;DHT22;6066;48.138;16.402;2022-09-09T07:30:52;18.60;99.90
12015;DHT22;6066;48.138;16.402;2022-09-09T07:33:19;18.70;99.90
12015;DHT22;6066;48.138;16.402;2022-09-09T07:35:46;18.70;99.90
12015;DHT22;6066;48.138;16.402;2022-09-09T07:38:14;18.80;99.90
12015;DHT22;6066;48.138;16.402;2022-09-09T07:40:41;18.80;99.90
12015;DHT22;6066;48.138;16.402;2022-09-09T07:43:07;18.80;99.90
12015;DHT22;6066;48.138;16.402;2022-09-09T07:45:37;18.70;99.90
12015;DHT22;6066;48.138;16.402;2022-09-09T07:48:05;18.60;99.90
12015;DHT22;6066;48.138;16.402;2022-09-09T07:50:32;18.70;99.90
12015;DHT22;6066;48.138;16.402;2022-09-09T07:52:59;18.70;99.90
12015;DHT22;6066;48.138;16.402;2022-09-09T07:55:27;18.80;99.90
12015;DHT22;6066;48.138;16.402;2022-09-09T07:57:54;18.90;99.90
12015;DHT22;6066;48.138;16.402;2022-09-09T08:00:22;19.10;99.90
12015;DHT22;6066;48.138;16.402;2022-09-09T08:02:49;19.20;99.90
12015;DHT22;6066;48.138;16.402;2022-09-09T08:05:15;19.20;99.90
12015;DHT22;6066;48.138;16.402;2022-09-09T08:07:44;19.30;99.90
12015;DHT22;6066;48.138;16.402;2022-09-09T08:10:12;19.40;99.90
12015;DHT22;6066;48.138;16.402;2022-09-09T08:12:41;19.50;99.90
12015;DHT22;6066;48.138;16.402;2022-09-09T08:15:07;19.60;99.90
12015;DHT22;6066;48.138;16.402;2022-09-09T08:17:34;19.70;99.90
12015;DHT22;6066;48.138;16.402;2022-09-09T08:20:03;19.70;99.90
12015;DHT22;6066;48.138;16.402;2022-09-09T08:22:31;19.70;99.90
12015;DHT22;6066;48.138;16.402;2022-09-09T08:24:58;19.90;99.90
12015;DHT22;6066;48.138;16.402;2022-09-09T08:27:25;20.00;99.90
12015;DHT22;6066;48.138;16.402;2022-09-09T08:29:53;20.20;99.90
12015;DHT22;6066;48.138;16.402;2022-09-09T08:32:21;20.40;99.90
12015;DHT22;6066;48.138;16.402;2022-09-09T08:34:48;20.50;99.90
12015;DHT22;6066;48.138;16.402;2022-09-09T08:37:14;20.60;99.90
12015;DHT22;6066;48.138;16.402;2022-09-09T08:39:41;20.70;99.90
12015;DHT22;6066;48.138;16.402;2022-09-09T08:45:17;20.90;99.90
12015;DHT22;6066;48.138;16.402;2022-09-09T08:47:48;21.00;99.90
12015;DHT22;6066;48.138;16.402;2022-09-09T08:50:19;20.90;99.90
12015;DHT22;6066;48.138;16.402;2022-09-09T08:52:51;20.90;99.90
12015;DHT22;6066;48.138;16.402;2022-09-09T08:55:20;21.00;99.90
12015;DHT22;6066;48.138;16.402;2022-09-09T08:57:49;21.00;99.90
12015;DHT22;6066;48.138;16.402;2022-09-09T09:00:18;21.00;99.90
12015;DHT22;6066;48.138;16.402;2022-09-09T09:02:46;21.10;99.90
12015;DHT22;6066;48.138;16.402;2022-09-09T09:05:18;21.20;99.90
12015;DHT22;6066;48.138;16.402;2022-09-09T09:07:52;21.40;99.90
12015;DHT22;6066;48.138;16.402;2022-09-09T09:10:25;21.60;99.90
12015;DHT22;6066;48.138;16.402;2022-09-09T09:12:57;21.70;99.90
12015;DHT22;6066;48.138;16.402;2022-09-09T09:15:30;21.80;99.90
12015;DHT22;6066;48.138;16.402;2022-09-09T09:17:57;21.90;99.90
12015;DHT22;6066;48.138;16.402;2022-09-09T09:20:26;21.80;99.90
12015;DHT22;6066;48.138;16.402;2022-09-09T09:22:55;21.90;99.90
12015;DHT22;6066;48.138;16.402;2022-09-09T09:25:27;22.10;99.90
12015;DHT22;6066;48.138;16.402;2022-09-09T09:27:58;22.10;99.90
12015;DHT22;6066;48.138;16.402;2022-09-09T09:30:28;22.10;99.90
12015;DHT22;6066;48.138;16.402;2022-09-09T09:32:58;22.00;99.90
12015;DHT22;6066;48.138;16.402;2022-09-09T09:35:26;21.90;99.90
12015;DHT22;6066;48.138;16.402;2022-09-09T09:37:53;21.90;99.90
12015;DHT22;6066;48.138;16.402;2022-09-09T09:40:20;21.90;99.90
12015;DHT22;6066;48.138;16.402;2022-09-09T09:42:48;22.00;99.90
12015;DHT22;6066;48.138;16.402;2022-09-09T09:45:16;22.10;99.90
12015;DHT22;6066;48.138;16.402;2022-09-09T09:47:44;22.40;99.90
12015;DHT22;6066;48.138;16.402;2022-09-09T09:50:16;22.70;99.90
12015;DHT22;6066;48.138;16.402;2022-09-09T09:52:52;22.90;99.90
12015;DHT22;6066;48.138;16.402;2022-09-09T09:55:19;22.90;99.90
12015;DHT22;6066;48.138;16.402;2022-09-09T09:57:46;22.90;99.90
12015;DHT22;6066;48.138;16.402;2022-09-09T10:00:14;23.00;99.90
12015;DHT22;6066;48.138;16.402;2022-09-09T10:02:42;23.10;99.90
12015;DHT22;6066;48.138;16.402;2022-09-09T10:05:17;23.20;99.90
12015;DHT22;6066;48.138;16.402;2022-09-09T10:07:45;23.10;99.90
12015;DHT22;6066;48.138;16.402;2022-09-09T10:10:13;23.10;99.90
12015;DHT22;6066;48.138;16.402;2022-09-09T10:12:43;23.00;99.90
12015;DHT22;6066;48.138;16.402;2022-09-09T10:15:20;23.00;99.90
12015;DHT22;6066;48.138;16.402;2022-09-09T10:17:53;22.90;99.90
12015;DHT22;6066;48.138;16.402;2022-09-09T10:20:26;23.00;99.90
12015;DHT22;6066;48.138;16.402;2022-09-09T10:22:57;23.30;99.90
12015;DHT22;6066;48.138;16.402;2022-09-09T10:25:31;23.40;99.90
12015;DHT22;6066;48.138;16.402;2022-09-09T10:28:10;23.30;99.90
12015;DHT22;6066;48.138;16.402;2022-09-09T10:30:45;23.10;99.90
12015;DHT22;6066;48.138;16.402;2022-09-09T10:33:15;22.80;99.90
12015;DHT22;6066;48.138;16.402;2022-09-09T10:35:49;22.60;99.90
12015;DHT22;6066;48.138;16.402;2022-09-09T10:38:19;22.50;99.90
12015;DHT22;6066;48.138;16.402;2022-09-09T10:41:00;22.50;99.90
12015;DHT22;6066;48.138;16.402;2022-09-09T10:43:39;22.60;99.90
12015;DHT22;6066;48.138;16.402;2022-09-09T10:46:10;22.70;99.90
12015;DHT22;6066;48.138;16.402;2022-09-09T10:48:42;22.90;99.90
12015;DHT22;6066;48.138;16.402;2022-09-09T10:51:16;23.10;99.90
12015;DHT22;6066;48.138;16.402;2022-09-09T10:53:51;23.30;99.90
12015;DHT22;6066;48.138;16.402;2022-09-09T10:56:20;23.40;99.90
12015;DHT22;6066;48.138;16.402;2022-09-09T10:58:50;23.30;99.90
12015;DHT22;6066;48.138;16.402;2022-09-09T11:01:19;23.30;99.90
12015;DHT22;6066;48.138;16.402;2022-09-09T11:03:47;23.30;99.90
12015;DHT22;6066;48.138;16.402;2022-09-09T11:06:19;23.40;99.90
12015;DHT22;6066;48.138;16.402;2022-09-09T11:08:46;23.40;99.90
12015;DHT22;6066;48.138;16.402;2022-09-09T11:11:16;23.30;99.90
12015;DHT22;6066;48.138;16.402;2022-09-09T11:13:46;23.10;99.90
12015;DHT22;6066;48.138;16.402;2022-09-09T11:16:20;22.90;99.90
12015;DHT22;6066;48.138;16.402;2022-09-09T11:18:48;22.80;99.90
12015;DHT22;6066;48.138;16.402;2022-09-09T11:21:18;22.70;99.90
12015;DHT22;6066;48.138;16.402;2022-09-09T11:23:48;22.90;99.90
12015;DHT22;6066;48.138;16.402;2022-09-09T11:26:18;23.00;99.90
12015;DHT22;6066;48.138;16.402;2022-09-09T11:28:51;23.10;99.90
12015;DHT22;6066;48.138;16.402;2022-09-09T11:31:30;23.30;99.90
12015;DHT22;6066;48.138;16.402;2022-09-09T11:34:06;23.40;99.90
12015;DHT22;6066;48.138;16.402;2022-09-09T11:36:46;23.50;99.90
12015;DHT22;6066;48.138;16.402;2022-09-09T11:39:28;23.60;99.90
12015;DHT22;6066;48.138;16.402;2022-09-09T11:42:05;23.70;99.90
12015;DHT22;6066;48.138;16.402;2022-09-09T11:44:32;23.70;99.90
12015;DHT22;6066;48.138;16.402;2022-09-09T11:46:59;23.70;99.90
12015;DHT22;6066;48.138;16.402;2022-09-09T11:49:27;23.70;99.90
12015;DHT22;6066;48.138;16.402;2022-09-09T11:51:55;23.80;99.90
12015;DHT22;6066;48.138;16.402;2022-09-09T11:54:27;23.90;99.90
12015;DHT22;6066;48.138;16.402;2022-09-09T11:56:54;23.90;99.90
12015;DHT22;6066;48.138;16.402;2022-09-09T11:59:22;24.00;99.90
12015;DHT22;6066;48.138;16.402;2022-09-09T12:01:50;24.20;99.90
12015;DHT22;6066;48.138;16.402;2022-09-09T12:04:32;24.30;99.90
12015;DHT22;6066;48.138;16.402;2022-09-09T12:07:02;24.40;99.90
12015;DHT22;6066;48.138;16.402;2022-09-09T12:09:31;24.50;99.90
12015;DHT22;6066;48.138;16.402;2022-09-09T12:12:05;24.60;99.90
12015;DHT22;6066;48.138;16.402;2022-09-09T12:14:35;24.70;99.90
12015;DHT22;6066;48.138;16.402;2022-09-09T12:17:10;24.80;99.90
12015;DHT22;6066;48.138;16.402;2022-09-09T12:19:36;24.90;99.90
12015;DHT22;6066;48.138;16.402;2022-09-09T12:22:05;24.90;99.90
12015;DHT22;6066;48.138;16.402;2022-09-09T12:24:35;24.80;99.90
12015;DHT22;6066;48.138;16.402;2022-09-09T12:27:05;24.90;99.90
12015;DHT22;6066;48.138;16.402;2022-09-09T12:29:37;24.70;99.90
12015;DHT22;6066;48.138;16.402;2022-09-09T12:32:06;24.50;99.90
12015;DHT22;6066;48.138;16.402;2022-09-09T12:34:35;24.20;99.90
12015;DHT22;6066;48.138;16.402;2022-09-09T12:37:05;24.00;99.90
12015;DHT22;6066;48.138;16.402;2022-09-09T12:39:33;23.80;99.90
12015;DHT22;6066;48.138;16.402;2022-09-09T12:42:01;23.80;99.90
12015;DHT22;6066;48.138;16.402;2022-09-09T12:44:29;23.70;99.90
12015;DHT22;6066;48.138;16.402;2022-09-09T12:46:58;23.70;99.90
12015;DHT22;6066;48.138;16.402;2022-09-09T12:49:27;23.60;99.90
12015;DHT22;6066;48.138;16.402;2022-09-09T12:51:56;23.50;99.90
12015;DHT22;6066;48.138;16.402;2022-09-09T12:54:25;23.40;99.90
12015;DHT22;6066;48.138;16.402;2022-09-09T12:56:53;23.40;99.90
12015;DHT22;6066;48.138;16.402;2022-09-09T12:59:23;23.40;99.90
12015;DHT22;6066;48.138;16.402;2022-09-09T13:01:59;23.40;99.90
12015;DHT22;6066;48.138;16.402;2022-09-09T13:04:26;23.40;99.90
12015;DHT22;6066;48.138;16.402;2022-09-09T13:06:53;23.40;99.90
12015;DHT22;6066;48.138;16.402;2022-09-09T13:09:20;23.30;99.90
12015;DHT22;6066;48.138;16.402;2022-09-09T13:11:49;23.20;99.90
12015;DHT22;6066;48.138;16.402;2022-09-09T13:14:17;23.20;99.90
12015;DHT22;6066;48.138;16.402;2022-09-09T13:16:54;23.20;99.90
12015;DHT22;6066;48.138;16.402;2022-09-09T13:19:21;23.10;99.90
12015;DHT22;6066;48.138;16.402;2022-09-09T13:21:51;23.10;99.90
12015;DHT22;6066;48.138;16.402;2022-09-09T13:24:28;23.10;99.90
12015;DHT22;6066;48.138;16.402;2022-09-09T13:26:57;23.10;99.90
12015;DHT22;6066;48.138;16.402;2022-09-09T13:29:24;23.00;99.90
12015;DHT22;6066;48.138;16.402;2022-09-09T13:31:51;23.00;99.90
12015;DHT22;6066;48.138;16.402;2022-09-09T13:34:26;22.90;99.90
12015;DHT22;6066;48.138;16.402;2022-09-09T13:36:54;22.80;99.90
12015;DHT22;6066;48.138;16.402;2022-09-09T13:39:22;22.70;99.90
12015;DHT22;6066;48.138;16.402;2022-09-09T13:41:48;22.50;99.90
12015;DHT22;6066;48.138;16.402;2022-09-09T13:44:19;22.40;99.90
12015;DHT22;6066;48.138;16.402;2022-09-09T13:46:46;22.30;99.90
12015;DHT22;6066;48.138;16.402;2022-09-09T13:49:19;22.20;99.90
12015;DHT22;6066;48.138;16.402;2022-09-09T13:51:48;22.10;99.90
12015;DHT22;6066;48.138;16.402;2022-09-09T13:54:17;22.10;99.90
12015;DHT22;6066;48.138;16.402;2022-09-09T13:56:44;22.00;99.90
12015;DHT22;6066;48.138;16.402;2022-09-09T13:59:12;21.90;99.90
12015;DHT22;6066;48.138;16.402;2022-09-09T14:01:40;21.90;99.90
12015;DHT22;6066;48.138;16.402;2022-09-09T14:04:07;21.80;99.90
12015;DHT22;6066;48.138;16.402;2022-09-09T14:06:34;21.80;99.90
12015;DHT22;6066;48.138;16.402;2022-09-09T14:09:02;21.80;99.90
12015;DHT22;6066;48.138;16.402;2022-09-09T14:11:29;21.80;99.90
12015;DHT22;6066;48.138;16.402;2022-09-09T14:13:55;21.70;99.90
12015;DHT22;6066;48.138;16.402;2022-09-09T14:16:22;21.70;99.90
12015;DHT22;6066;48.138;16.402;2022-09-09T14:18:50;21.70;99.90
12015;DHT22;6066;48.138;16.402;2022-09-09T14:21:17;21.70;99.90
12015;DHT22;6066;48.138;16.402;2022-09-09T14:23:44;21.70;99.90
12015;DHT22;6066;48.138;16.402;2022-09-09T14:26:10;21.70;99.90
12015;DHT22;6066;48.138;16.402;2022-09-09T14:28:38;21.70;99.90
12015;DHT22;6066;48.138;16.402;2022-09-09T14:31:05;21.60;99.90
12015;DHT22;6066;48.138;16.402;2022-09-09T14:33:32;21.60;99.90
12015;DHT22;6066;48.138;16.402;2022-09-09T14:36:02;21.60;99.90
12015;DHT22;6066;48.138;16.402;2022-09-09T14:38:29;21.60;99.90
12015;DHT22;6066;48.138;16.402;2022-09-09T14:40:56;21.60;99.90
12015;DHT22;6066;48.138;16.402;2022-09-09T14:43:23;21.60;99.90
12015;DHT22;6066;48.138;16.402;2022-09-09T14:45:51;21.50;99.90
12015;DHT22;6066;48.138;16.402;2022-09-09T14:48:18;21.40;99.90
12015;DHT22;6066;48.138;16.402;2022-09-09T14:50:44;21.40;99.90
12015;DHT22;6066;48.138;16.402;2022-09-09T14:53:13;21.40;99.90
12015;DHT22;6066;48.138;16.402;2022-09-09T14:55:39;21.30;99.90
12015;DHT22;6066;48.138;16.402;2022-09-09T14:58:06;21.10;99.90
12015;DHT22;6066;48.138;16.402;2022-09-09T15:00:32;21.10;99.90
12015;DHT22;6066;48.138;16.402;2022-09-09T15:02:59;20.90;99.90
12015;DHT22;6066;48.138;16.402;2022-09-09T15:05:26;20.90;99.90
12015;DHT22;6066;48.138;16.402;2022-09-09T15:07:53;20.90;99.90
12015;DHT22;6066;48.138;16.402;2022-09-09T15:10:21;20.90;99.90
12015;DHT22;6066;48.138;16.402;2022-09-09T15:12:48;20.90;99.90
12015;DHT22;6066;48.138;16.402;2022-09-09T15:15:14;21.00;99.90
12015;DHT22;6066;48.138;16.402;2022-09-09T15:17:41;21.00;99.90
12015;DHT22;6066;48.138;16.402;2022-09-09T15:20:08;21.10;99.90
12015;DHT22;6066;48.138;16.402;2022-09-09T15:22:35;21.10;99.90
12015;DHT22;6066;48.138;16.402;2022-09-09T15:25:03;21.00;99.90
12015;DHT22;6066;48.138;16.402;2022-09-09T15:27:32;21.10;99.90
12015;DHT22;6066;48.138;16.402;2022-09-09T15:29:59;21.10;99.90
12015;DHT22;6066;48.138;16.402;2022-09-09T15:32:26;21.10;99.90
12015;DHT22;6066;48.138;16.402;2022-09-09T15:34:52;21.00;99.90
12015;DHT22;6066;48.138;16.402;2022-09-09T15:37:19;21.00;99.90
12015;DHT22;6066;48.138;16.402;2022-09-09T15:39:46;21.00;99.90
12015;DHT22;6066;48.138;16.402;2022-09-09T15:42:13;20.90;99.90